Portada
METAR-TAF:

METAR-TAF

Aeroports :

Bogue_Field/MCALF

Swansboro, Carolina del Nord, Estats Units d'Amèrica

latitud: 34-41-34N, longitud: 077-01-46W, altitud: 6 m

Observació

L'informe es va fer fa 41 minuts, a les 03:57 UTC
Vent 3 kt del Nord-Est
Temperatura 27°C
Humitat 66%
Pressió 1014 hPa
Visibilitat: 16.1 km
Cel clar

METAR: KNJM 050357Z AUTO 04003KT 10SM CLR 27/20 A2995 RMK AO2 SLP145 T02670200 $

Hora: 00:38 (04:38 UTC)


TAF: manca

Observacions i pronòstics meteorològics de més de 4000 aeroports (METAR i TAF).

Les estacions disponibles són els punts grocs i vermells al mapa.

Posi el ratolí al punt desitjat per veure el nom de l'estació.

Feu clic per veure les observacions i els pronòstics meteorològics.

Per canviar el mapa: feu clic els botons verds amb una creu de color negre per apropar; al botó verd amb un guió per allunyar la imatge; o en les fletxes verdes per a mapes adjacents.


METAR-TAF: